Airfield :
LOGIN :

Register | Disclaimer

   EN    FR    IT 

 










Legend :    VFR   Marginal VFR   IFR   Intensive IFR   Very Intensive IFR
Visi :
Ceiling :
>= 8 km
>= 3000ft
5 to 8 km
1000 to 3000 ft
1500m to 5 km
500 to 1000 ft
800 to 1500m
200 to 500 ft
< 800m
< 200 ft
Symbols :   Thunderstorms  Fog  Heavy snow  Heavy precipitations  Wind > 20 kt
SIGMETs :     Misc.  Thunderstorms  Icing  Turbulence  Mountain Waves  Volcanic Ashes






- Airport Elevation : 119 ft
- IATA code : WAT


EIWF - Waterford

CURRENT METAR :
  • 011230Z 24007KT 190V300 9999 SCT020 SCT045 09/05 Q1028

EXPIRED METARs :
  • 011200Z 25007KT 200V300 9999 SCT020 SCT041 09/04 Q1028
  • 011130Z 26009KT 210V310 9999 FEW020 SCT046 09/05 Q1028
  • 011100Z 29015G31KT 250V320 9999 FEW020 BKN050 09/04 Q1028
  • 011030Z 27011KT 230V300 9999 FEW018 SCT050 08/04 Q1027
  • 011000Z 28015KT 240V300 9999 SCT020 BKN050 08/04 Q1027

TAF TAF EIWF
Valid from the 01 at 12:00 until the 01 at 21:00 UTC


011100Z 0112/0121 27014KT 9999 FEW020 SCT030
TEMPO 0112/0115 28015G27KT
BECMG 0119/0121 24007KT
ATIS : +353 51 877 000



MET'MAP, your aeronautical weather chart ! - Copyright ORBIFLY December 2007 - Disclaimer

ORBIFLY MET'MAP TEAM :

Programming & Development : Alexandra Zaïnal
Original concept : Baudouin d'Aumeries
Technical & hardware support : Manuel Goepfert
Assistance : Marc-Olivier Méhu




SOURCES & CREDITS :

   NOAA